createdAt,value
2023-04-07T00:00:19.755Z,3.07
2023-04-07T00:02:49.649Z,4.50
2023-04-07T00:05:17.818Z,3.97
2023-04-07T00:07:55.801Z,3.17
2023-04-07T00:10:28.887Z,3.80
2023-04-07T00:12:57.576Z,4.10
2023-04-07T00:15:26.745Z,3.70
2023-04-07T00:18:16.778Z,3.53
2023-04-07T00:20:45.689Z,4.27
2023-04-07T00:23:13.742Z,4.00
2023-04-07T00:25:43.101Z,3.93
2023-04-07T00:28:12.633Z,4.13
2023-04-07T00:30:41.117Z,4.67
2023-04-07T00:33:09.680Z,4.90
2023-04-07T00:35:38.022Z,4.63
2023-04-07T00:38:07.243Z,5.00
2023-04-07T00:40:36.865Z,4.70
2023-04-07T00:43:06.682Z,3.50
2023-04-07T00:45:34.981Z,5.23
2023-04-07T00:48:03.115Z,3.67
2023-04-07T00:50:31.942Z,4.23
2023-04-07T00:53:02.703Z,5.30
2023-04-07T00:55:30.892Z,5.20
2023-04-07T00:57:58.933Z,5.77
2023-04-07T01:00:29.028Z,5.77
2023-04-07T01:03:02.739Z,5.87
2023-04-07T01:05:43.843Z,5.47
2023-04-07T01:08:18.636Z,5.80
2023-04-07T01:10:53.084Z,5.03
2023-04-07T01:13:29.147Z,5.27
2023-04-07T01:16:13.332Z,4.93
2023-04-07T01:18:52.184Z,5.47
2023-04-07T01:21:22.590Z,5.00
2023-04-07T01:24:11.323Z,5.77
2023-04-07T01:26:42.230Z,6.37
2023-04-07T01:29:35.059Z,5.00
2023-04-07T01:32:05.246Z,4.63
2023-04-07T01:34:33.996Z,6.03
2023-04-07T01:37:04.320Z,5.03
2023-04-07T01:39:33.575Z,4.80
2023-04-07T01:42:03.114Z,5.07
2023-04-07T01:44:33.442Z,5.50
2023-04-07T01:47:02.557Z,4.97
2023-04-07T01:49:32.194Z,5.33
2023-04-07T01:52:01.269Z,5.40
2023-04-07T01:54:30.402Z,6.53
2023-04-07T01:56:58.983Z,6.10
2023-04-07T01:59:27.576Z,6.23
2023-04-07T02:01:59.216Z,5.10
2023-04-07T02:04:32.493Z,5.70
2023-04-07T02:07:07.857Z,6.33
2023-04-07T02:09:46.114Z,5.50
2023-04-07T02:12:16.738Z,5.37
2023-04-07T02:15:00.005Z,6.00
2023-04-07T02:17:30.293Z,6.20
2023-04-07T02:20:00.357Z,7.20
2023-04-07T02:22:30.253Z,6.83
2023-04-07T02:24:58.328Z,5.97
2023-04-07T02:27:28.447Z,5.80
2023-04-07T02:30:03.570Z,6.23
2023-04-07T02:32:34.559Z,5.50
2023-04-07T02:35:04.735Z,6.30
2023-04-07T02:37:36.170Z,5.97
2023-04-07T02:40:04.800Z,6.70
2023-04-07T02:42:32.954Z,6.90
2023-04-07T02:45:02.070Z,7.13
2023-04-07T02:47:31.398Z,5.87
2023-04-07T02:50:00.958Z,5.97
2023-04-07T02:52:29.407Z,6.40
2023-04-07T02:54:57.895Z,5.87
2023-04-07T02:57:29.428Z,5.73
2023-04-07T03:00:01.389Z,5.80
2023-04-07T03:02:44.372Z,5.90
2023-04-07T03:05:14.429Z,6.00
2023-04-07T03:07:42.480Z,5.50
2023-04-07T03:10:12.138Z,5.73
2023-04-07T03:12:40.744Z,5.27
2023-04-07T03:15:11.191Z,4.60
2023-04-07T03:17:40.557Z,5.43
2023-04-07T03:20:10.204Z,6.93
2023-04-07T03:22:41.413Z,5.63
2023-04-07T03:25:16.779Z,5.27
2023-04-07T03:27:45.669Z,6.97
2023-04-07T03:30:16.126Z,5.77
2023-04-07T03:32:48.022Z,6.20
2023-04-07T03:35:16.379Z,5.90
2023-04-07T03:37:47.418Z,6.80
2023-04-07T03:40:19.160Z,5.73
2023-04-07T03:42:48.151Z,6.80
2023-04-07T03:45:18.404Z,6.27
2023-04-07T03:47:50.274Z,5.47
2023-04-07T03:50:19.466Z,6.40
2023-04-07T03:53:00.634Z,5.83
2023-04-07T03:55:31.986Z,6.60
2023-04-07T03:58:07.269Z,8.27
2023-04-07T04:00:38.316Z,8.00
2023-04-07T04:03:10.984Z,7.03
2023-04-07T04:05:46.814Z,9.27
2023-04-07T04:08:21.608Z,8.10
2023-04-07T04:10:49.745Z,7.30
2023-04-07T04:13:17.957Z,6.97
2023-04-07T04:15:47.931Z,5.87
2023-04-07T04:18:18.730Z,8.30
2023-04-07T04:20:47.950Z,7.77
2023-04-07T04:23:16.508Z,8.60
2023-04-07T04:25:47.639Z,7.70
2023-04-07T04:28:16.619Z,7.33
2023-04-07T04:30:46.804Z,8.10
2023-04-07T04:33:15.207Z,8.23
2023-04-07T04:35:56.471Z,7.40
2023-04-07T04:38:26.315Z,7.40
2023-04-07T04:41:09.108Z,6.97
2023-04-07T04:43:38.423Z,8.40
2023-04-07T04:46:08.831Z,7.93
2023-04-07T04:48:42.147Z,6.93
2023-04-07T04:51:10.702Z,8.17
2023-04-07T04:53:40.638Z,9.73
2023-04-07T04:56:10.973Z,9.80
2023-04-07T04:59:00.377Z,11.20
2023-04-07T05:01:48.105Z,11.33
2023-04-07T05:04:18.632Z,11.80
2023-04-07T05:06:54.760Z,10.73
2023-04-07T05:09:27.940Z,11.17
2023-04-07T05:11:57.813Z,13.33
2023-04-07T05:14:28.004Z,11.30
2023-04-07T05:17:05.698Z,12.37
2023-04-07T05:19:34.542Z,12.47
2023-04-07T05:22:10.955Z,10.90
2023-04-07T05:24:46.836Z,11.30
2023-04-07T05:27:16.566Z,10.17
2023-04-07T05:29:47.301Z,10.90
2023-04-07T05:32:23.774Z,10.97
2023-04-07T05:34:55.020Z,11.33
2023-04-07T05:37:24.252Z,9.93
2023-04-07T05:39:52.328Z,11.73
2023-04-07T05:42:21.777Z,12.40
2023-04-07T05:44:52.945Z,13.37
2023-04-07T05:47:25.008Z,10.13
2023-04-07T05:49:53.533Z,11.30
2023-04-07T05:52:22.727Z,10.97
2023-04-07T05:54:58.387Z,9.93
2023-04-07T05:57:33.793Z,11.30
2023-04-07T06:00:05.432Z,11.77
2023-04-07T06:02:54.083Z,11.57
2023-04-07T06:05:22.496Z,12.63
2023-04-07T06:07:54.618Z,11.33
2023-04-07T06:10:23.408Z,11.93
2023-04-07T06:12:53.385Z,11.87
2023-04-07T06:15:23.475Z,12.13
2023-04-07T06:17:51.503Z,11.17
2023-04-07T06:20:21.545Z,10.80
2023-04-07T06:22:49.603Z,11.03
2023-04-07T06:25:17.897Z,11.40
2023-04-07T06:27:46.095Z,11.70
2023-04-07T06:30:16.829Z,11.30
2023-04-07T06:32:45.389Z,10.40
2023-04-07T06:35:13.425Z,9.50
2023-04-07T06:37:42.469Z,8.73
2023-04-07T06:40:10.970Z,8.37
2023-04-07T06:42:39.052Z,8.20
2023-04-07T06:45:14.968Z,9.00
2023-04-07T06:47:43.090Z,8.17
2023-04-07T06:50:12.133Z,8.20
2023-04-07T06:52:40.638Z,8.40
2023-04-07T06:55:10.649Z,8.10
2023-04-07T06:57:39.096Z,8.10
2023-04-07T07:00:09.006Z,8.03
2023-04-07T07:02:39.511Z,7.43
2023-04-07T07:05:08.364Z,8.07
2023-04-07T07:07:36.660Z,7.10
2023-04-07T07:10:05.202Z,8.67
2023-04-07T07:12:33.403Z,8.53
2023-04-07T07:15:02.119Z,8.33
2023-04-07T07:17:30.568Z,9.23
2023-04-07T07:20:02.317Z,7.53
2023-04-07T07:22:30.459Z,7.80
2023-04-07T07:24:58.448Z,8.30
2023-04-07T07:27:28.960Z,7.60
2023-04-07T07:29:57.074Z,7.90
2023-04-07T07:32:26.327Z,9.57
2023-04-07T07:34:54.373Z,8.53
2023-04-07T07:37:23.749Z,8.33
2023-04-07T07:39:51.804Z,7.57
2023-04-07T07:42:19.899Z,7.40
2023-04-07T07:44:47.915Z,7.40
2023-04-07T07:47:18.725Z,7.03
2023-04-07T07:49:46.835Z,9.57
2023-04-07T07:52:14.919Z,8.30
2023-04-07T07:54:44.969Z,8.27
2023-04-07T07:57:13.488Z,7.40
2023-04-07T07:59:41.629Z,8.30
2023-04-07T08:02:11.343Z,7.43
2023-04-07T08:04:39.570Z,9.97
2023-04-07T08:07:08.288Z,8.43
2023-04-07T08:09:36.375Z,7.90
2023-04-07T08:12:05.814Z,7.87
2023-04-07T08:14:34.005Z,7.70
2023-04-07T08:17:04.247Z,7.67
2023-04-07T08:19:32.266Z,7.37
2023-04-07T08:22:01.226Z,8.40
2023-04-07T08:24:30.281Z,8.50
2023-04-07T08:26:58.307Z,9.03
2023-04-07T08:29:27.683Z,7.73
2023-04-07T08:31:56.250Z,8.50
2023-04-07T08:34:24.291Z,8.23
2023-04-07T08:36:52.391Z,9.87
2023-04-07T08:39:21.124Z,8.43
2023-04-07T08:41:51.610Z,9.07
2023-04-07T08:44:23.677Z,9.17
2023-04-07T08:46:58.255Z,9.50
2023-04-07T08:49:29.937Z,9.37
2023-04-07T08:52:00.459Z,8.93
2023-04-07T08:54:30.001Z,9.20
2023-04-07T08:56:58.325Z,9.00
2023-04-07T08:59:31.945Z,8.20
2023-04-07T09:02:02.229Z,9.37
2023-04-07T09:04:31.223Z,8.90
2023-04-07T09:07:02.416Z,8.83
2023-04-07T09:09:30.735Z,8.17
2023-04-07T09:11:59.772Z,8.83
2023-04-07T09:14:28.163Z,7.90
2023-04-07T09:16:57.409Z,7.77
2023-04-07T09:19:30.395Z,7.70
2023-04-07T09:22:02.373Z,7.10
2023-04-07T09:24:32.552Z,8.30
2023-04-07T09:27:11.517Z,7.77
2023-04-07T09:29:40.377Z,7.93
2023-04-07T09:32:09.518Z,7.77
2023-04-07T09:34:41.405Z,8.20
2023-04-07T09:37:10.639Z,6.80
2023-04-07T09:39:51.166Z,6.60
2023-04-07T09:42:22.399Z,6.10
2023-04-07T09:44:50.717Z,5.83
2023-04-07T09:47:18.946Z,6.13
2023-04-07T09:49:53.616Z,6.40
2023-04-07T09:52:26.656Z,5.10
2023-04-07T09:54:57.060Z,5.27
2023-04-07T09:57:25.770Z,5.17
2023-04-07T09:59:55.581Z,4.97
2023-04-07T10:02:26.675Z,4.53
2023-04-07T10:04:57.023Z,3.90
2023-04-07T10:07:25.069Z,4.50
2023-04-07T10:09:53.112Z,4.30
2023-04-07T10:12:21.568Z,4.27
2023-04-07T10:14:53.488Z,3.93
2023-04-07T10:17:25.729Z,4.27
2023-04-07T10:19:55.966Z,4.47
2023-04-07T10:22:26.565Z,3.63
2023-04-07T10:25:00.083Z,3.90
2023-04-07T10:27:33.789Z,5.40
2023-04-07T10:30:06.662Z,5.00
2023-04-07T10:32:48.137Z,5.10
2023-04-07T10:35:21.018Z,6.80
2023-04-07T10:38:16.524Z,6.57
2023-04-07T10:40:46.597Z,6.20
2023-04-07T10:43:34.641Z,4.87
2023-04-07T10:46:03.122Z,4.70
2023-04-07T10:48:33.560Z,4.47
2023-04-07T10:51:17.443Z,5.13
2023-04-07T10:54:29.365Z,4.10
2023-04-07T10:57:18.471Z,4.73
2023-04-07T11:00:18.414Z,4.13
2023-04-07T11:02:47.858Z,5.10
2023-04-07T11:05:23.650Z,4.90
2023-04-07T11:07:58.024Z,5.07
2023-04-07T11:10:26.677Z,4.97
2023-04-07T11:13:05.255Z,4.77
2023-04-07T11:15:35.310Z,5.10
2023-04-07T11:18:12.186Z,4.93
2023-04-07T11:20:49.606Z,4.23
2023-04-07T11:23:20.088Z,5.13
2023-04-07T11:25:49.812Z,4.13
2023-04-07T11:28:19.824Z,4.67
2023-04-07T11:30:52.234Z,3.87
2023-04-07T11:33:22.426Z,3.30
2023-04-07T11:35:58.112Z,4.00
2023-04-07T11:38:28.183Z,4.10
2023-04-07T11:40:57.719Z,4.40
2023-04-07T11:43:30.777Z,3.90
2023-04-07T11:46:10.568Z,4.73
2023-04-07T11:48:40.587Z,4.10
2023-04-07T11:51:19.900Z,4.60
2023-04-07T11:53:48.590Z,5.60
2023-04-07T11:56:19.365Z,7.07
2023-04-07T11:58:53.186Z,7.33
2023-04-07T12:01:24.336Z,6.30
2023-04-07T12:03:59.419Z,7.33
2023-04-07T12:06:38.483Z,5.37
2023-04-07T12:09:08.055Z,4.20
2023-04-07T12:11:37.473Z,5.70
2023-04-07T12:14:12.494Z,5.00
2023-04-07T12:16:40.672Z,4.70
2023-04-07T12:19:09.369Z,3.60
2023-04-07T12:21:37.395Z,5.53
2023-04-07T12:24:05.589Z,7.17
2023-04-07T12:26:34.661Z,7.27
2023-04-07T12:29:05.165Z,8.30
2023-04-07T12:31:37.529Z,10.30
2023-04-07T12:34:06.266Z,9.80
2023-04-07T12:36:35.070Z,11.83
2023-04-07T12:39:03.805Z,11.20
2023-04-07T12:41:32.393Z,9.77
2023-04-07T12:44:01.940Z,9.20
2023-04-07T12:46:30.266Z,7.53
2023-04-07T12:49:00.154Z,5.20
2023-04-07T12:51:28.412Z,4.50
2023-04-07T12:53:57.410Z,3.10
2023-04-07T12:56:25.597Z,4.20
2023-04-07T12:58:54.891Z,5.00
2023-04-07T13:01:23.053Z,4.60
2023-04-07T13:03:52.003Z,3.87
2023-04-07T13:06:22.505Z,3.90
2023-04-07T13:08:52.518Z,2.87
2023-04-07T13:11:22.291Z,3.60
2023-04-07T13:13:51.129Z,3.20
2023-04-07T13:16:20.800Z,2.53
2023-04-07T13:18:48.851Z,3.43
2023-04-07T13:23:52.595Z,3.73
2023-04-07T13:26:22.255Z,3.40
2023-04-07T13:28:50.379Z,3.23
2023-04-07T13:31:18.641Z,3.17
2023-04-07T13:33:47.771Z,2.97
2023-04-07T13:36:16.045Z,2.50
2023-04-07T13:38:45.034Z,2.57
2023-04-07T13:41:14.864Z,3.17
2023-04-07T13:43:42.921Z,2.27
2023-04-07T13:46:27.032Z,3.07
2023-04-07T13:48:58.983Z,1.77
2023-04-07T13:51:29.552Z,2.53
2023-04-07T13:54:00.203Z,2.47
2023-04-07T13:56:30.031Z,2.00
2023-04-07T13:58:58.464Z,1.43
2023-04-07T14:01:28.876Z,1.90
2023-04-07T14:04:00.741Z,1.60
2023-04-07T14:06:29.049Z,1.70
2023-04-07T14:08:57.509Z,1.90
2023-04-07T14:11:27.571Z,1.40
2023-04-07T14:13:57.945Z,2.37
2023-04-07T14:16:26.730Z,2.30
2023-04-07T14:18:57.223Z,2.33
2023-04-07T14:21:27.822Z,2.33
2023-04-07T14:23:56.601Z,2.63
2023-04-07T14:26:25.202Z,2.70
2023-04-07T14:28:53.512Z,2.80
2023-04-07T14:31:23.790Z,2.70
2023-04-07T14:33:52.508Z,2.23
2023-04-07T14:36:20.583Z,1.80
2023-04-07T14:38:50.705Z,2.20
2023-04-07T14:41:20.113Z,1.97
2023-04-07T14:43:52.299Z,2.10
2023-04-07T14:46:23.325Z,2.50
2023-04-07T14:48:52.863Z,1.60
2023-04-07T14:51:21.874Z,2.10
2023-04-07T14:53:53.994Z,1.70
2023-04-07T14:56:22.556Z,1.40
2023-04-07T14:58:51.560Z,1.70
2023-04-07T15:01:20.213Z,2.10
2023-04-07T15:03:49.920Z,1.60
2023-04-07T15:06:18.388Z,1.53
2023-04-07T15:08:46.747Z,1.60
2023-04-07T15:11:15.896Z,2.00
2023-04-07T15:13:43.961Z,1.90
2023-04-07T15:16:14.466Z,1.77
2023-04-07T15:18:45.180Z,3.10
2023-04-07T15:21:16.914Z,2.00
2023-04-07T15:23:48.333Z,2.37
2023-04-07T15:26:19.033Z,1.90
2023-04-07T15:28:48.625Z,2.27
2023-04-07T15:31:16.752Z,1.77
2023-04-07T15:33:46.898Z,2.07
2023-04-07T15:36:16.813Z,2.43
2023-04-07T15:38:45.111Z,2.13
2023-04-07T15:41:18.479Z,1.50
2023-04-07T15:43:46.850Z,2.00
2023-04-07T15:46:15.310Z,1.70
2023-04-07T15:48:44.733Z,1.90
2023-04-07T15:51:12.777Z,2.00
2023-04-07T15:53:42.627Z,1.60
2023-04-07T15:56:13.801Z,2.03
2023-04-07T15:58:42.621Z,1.47
2023-04-07T16:01:10.696Z,1.87
2023-04-07T16:03:39.617Z,2.13
2023-04-07T16:06:08.267Z,1.80
2023-04-07T16:08:36.335Z,1.67
2023-04-07T16:11:06.394Z,1.87
2023-04-07T16:13:34.376Z,1.60
2023-04-07T16:16:03.642Z,2.00
2023-04-07T16:18:32.153Z,2.20
2023-04-07T16:21:02.995Z,1.37
2023-04-07T16:23:33.253Z,2.23
2023-04-07T16:26:01.360Z,2.40
2023-04-07T16:28:30.899Z,2.17
2023-04-07T16:30:59.029Z,2.00
2023-04-07T16:33:28.488Z,2.47
2023-04-07T16:35:56.510Z,2.33
2023-04-07T16:38:25.038Z,1.70
2023-04-07T16:41:03.260Z,1.83
2023-04-07T16:43:34.579Z,1.50
2023-04-07T16:46:06.357Z,1.60
2023-04-07T16:48:35.476Z,2.40
2023-04-07T16:51:05.822Z,2.00
2023-04-07T16:53:34.359Z,2.20
2023-04-07T16:56:02.364Z,2.60
2023-04-07T16:58:32.649Z,3.60
2023-04-07T17:01:02.067Z,3.17
2023-04-07T17:03:31.194Z,4.57
2023-04-07T17:06:04.901Z,3.07
2023-04-07T17:08:33.396Z,2.93
2023-04-07T17:11:02.164Z,3.30
2023-04-07T17:13:30.397Z,3.40
2023-04-07T17:15:58.871Z,4.40
2023-04-07T17:18:29.396Z,4.57
2023-04-07T17:20:57.424Z,4.83
2023-04-07T17:23:28.259Z,4.33
2023-04-07T17:25:56.296Z,4.67
2023-04-07T17:28:24.953Z,4.37
2023-04-07T17:30:53.113Z,5.27
2023-04-07T17:33:22.234Z,4.50
2023-04-07T17:35:51.670Z,4.37
2023-04-07T17:38:19.765Z,4.57
2023-04-07T17:40:48.808Z,4.60
2023-04-07T17:43:18.207Z,5.03
2023-04-07T17:45:46.794Z,3.90
2023-04-07T17:48:16.097Z,4.83
2023-04-07T17:50:45.672Z,5.63
2023-04-07T17:53:15.008Z,5.20
2023-04-07T17:55:44.179Z,5.63
2023-04-07T17:58:12.902Z,6.20
2023-04-07T18:00:41.666Z,5.73
2023-04-07T18:03:11.095Z,6.37
2023-04-07T18:05:45.377Z,6.00
2023-04-07T18:08:15.681Z,5.17
2023-04-07T18:10:43.880Z,5.50
2023-04-07T18:13:16.753Z,6.50
2023-04-07T18:15:44.852Z,5.70
2023-04-07T18:18:13.119Z,5.70
2023-04-07T18:20:45.691Z,5.43
2023-04-07T18:23:17.775Z,5.80
2023-04-07T18:25:47.505Z,6.47
2023-04-07T18:28:16.935Z,6.30
2023-04-07T18:30:45.110Z,6.17
2023-04-07T18:33:14.258Z,7.50
2023-04-07T18:35:42.448Z,7.57
2023-04-07T18:38:10.516Z,7.93
2023-04-07T18:40:41.135Z,7.37
2023-04-07T18:43:09.220Z,7.67
2023-04-07T18:45:37.243Z,6.53
2023-04-07T18:48:06.466Z,8.23
2023-04-07T18:50:34.517Z,7.97
2023-04-07T18:53:02.791Z,7.73
2023-04-07T18:55:32.706Z,7.10
2023-04-07T18:58:03.793Z,6.90
2023-04-07T19:00:32.083Z,6.43
2023-04-07T19:03:00.257Z,7.20
2023-04-07T19:05:29.090Z,7.17
2023-04-07T19:07:57.673Z,6.73
2023-04-07T19:10:26.436Z,7.47
2023-04-07T19:12:55.057Z,8.87
2023-04-07T19:15:24.529Z,7.40
2023-04-07T19:17:53.088Z,8.13
2023-04-07T19:20:21.183Z,7.10
2023-04-07T19:22:50.132Z,8.90
2023-04-07T19:25:18.478Z,7.70
2023-04-07T19:27:47.749Z,9.70
2023-04-07T19:30:17.001Z,8.20
2023-04-07T19:32:47.195Z,9.40
2023-04-07T19:35:18.892Z,8.00
2023-04-07T19:37:48.302Z,8.70
2023-04-07T19:40:18.664Z,7.70
2023-04-07T19:42:47.222Z,8.37
2023-04-07T19:45:16.148Z,10.27
2023-04-07T19:47:47.717Z,9.07
2023-04-07T19:50:15.847Z,8.40
2023-04-07T19:52:45.441Z,8.47
2023-04-07T19:55:14.395Z,8.77
2023-04-07T19:57:43.988Z,9.07
2023-04-07T20:00:13.212Z,9.93
2023-04-07T20:02:54.207Z,10.27
2023-04-07T20:05:22.772Z,9.80
2023-04-07T20:07:52.834Z,9.50
2023-04-07T20:10:21.664Z,8.50
2023-04-07T20:12:49.768Z,9.80
2023-04-07T20:15:18.127Z,10.43
2023-04-07T20:17:48.286Z,10.03
2023-04-07T20:20:20.592Z,10.00
2023-04-07T20:22:48.621Z,10.10
2023-04-07T20:25:18.216Z,10.10
2023-04-07T20:27:50.400Z,9.00
2023-04-07T20:30:18.558Z,10.07
2023-04-07T20:32:47.628Z,10.10
2023-04-07T20:35:17.543Z,9.77
2023-04-07T20:37:46.061Z,10.73
2023-04-07T20:40:15.110Z,10.00
2023-04-07T20:42:43.100Z,11.50
2023-04-07T20:45:13.054Z,9.57
2023-04-07T20:47:41.443Z,10.23
2023-04-07T20:50:10.621Z,10.10
2023-04-07T20:52:43.309Z,10.20
2023-04-07T20:55:11.930Z,9.70
2023-04-07T20:57:40.671Z,9.90
2023-04-07T21:00:10.243Z,10.43
2023-04-07T21:02:39.079Z,9.27
2023-04-07T21:05:08.855Z,12.10
2023-04-07T21:07:38.085Z,10.50
2023-04-07T21:10:11.113Z,12.97
2023-04-07T21:12:39.712Z,11.17
2023-04-07T21:15:09.273Z,12.20
2023-04-07T21:17:37.314Z,9.80
2023-04-07T21:20:06.357Z,10.23
2023-04-07T21:22:34.457Z,11.20
2023-04-07T21:25:06.878Z,10.53
2023-04-07T21:27:38.600Z,11.00
2023-04-07T21:30:11.628Z,9.83
2023-04-07T21:32:40.166Z,10.17
2023-04-07T21:35:11.344Z,12.40
2023-04-07T21:37:46.006Z,11.97
2023-04-07T21:40:14.073Z,11.10
2023-04-07T21:42:43.415Z,10.70
2023-04-07T21:45:12.570Z,10.73
2023-04-07T21:47:40.637Z,8.83
2023-04-07T21:50:09.445Z,9.97
2023-04-07T21:52:38.222Z,9.93
2023-04-07T21:55:07.223Z,8.97
2023-04-07T21:57:36.184Z,11.10
2023-04-07T22:00:07.252Z,9.40
2023-04-07T22:02:55.696Z,9.63
2023-04-07T22:05:24.331Z,11.60
2023-04-07T22:07:52.469Z,10.53
2023-04-07T22:10:20.610Z,10.87
2023-04-07T22:12:48.738Z,9.50
2023-04-07T22:15:18.683Z,9.00
2023-04-07T22:17:46.813Z,8.70
2023-04-07T22:20:16.296Z,9.33
2023-04-07T22:22:45.373Z,13.50
2023-04-07T22:25:13.359Z,9.60
2023-04-07T22:27:41.841Z,10.93
2023-04-07T22:30:11.243Z,9.90
2023-04-07T22:32:41.829Z,9.50
2023-04-07T22:35:12.832Z,12.03
2023-04-07T22:37:41.027Z,10.40
2023-04-07T22:40:10.839Z,10.70
2023-04-07T22:42:39.980Z,10.97
2023-04-07T22:45:09.285Z,10.63
2023-04-07T22:47:38.011Z,9.67
2023-04-07T22:50:08.519Z,10.47
2023-04-07T22:52:37.454Z,10.23
2023-04-07T22:55:07.845Z,10.53
2023-04-07T22:57:36.179Z,11.70
2023-04-07T23:00:05.224Z,11.40
2023-04-07T23:02:33.661Z,10.27
2023-04-07T23:05:02.098Z,10.93
2023-04-07T23:07:33.094Z,10.10
2023-04-07T23:10:01.341Z,10.03
2023-04-07T23:12:29.938Z,11.70
2023-04-07T23:14:58.525Z,11.07
2023-04-07T23:17:26.685Z,12.47
2023-04-07T23:19:55.705Z,12.10
2023-04-07T23:22:23.738Z,12.67
2023-04-07T23:24:54.600Z,9.90
2023-04-07T23:27:23.039Z,10.43
2023-04-07T23:29:54.116Z,9.53
2023-04-07T23:32:23.238Z,12.50
2023-04-07T23:34:51.347Z,10.20
2023-04-07T23:37:20.370Z,12.40
2023-04-07T23:39:48.421Z,11.87
2023-04-07T23:42:18.868Z,14.07
2023-04-07T23:44:47.338Z,12.53
2023-04-07T23:47:15.871Z,12.50
2023-04-07T23:49:43.931Z,14.60
2023-04-07T23:52:14.329Z,14.53
2023-04-07T23:54:43.148Z,14.30
2023-04-07T23:57:11.686Z,18.20
2023-04-07T23:59:41.403Z,19.30
